createdAt,value
2018-04-24T00:02:25.871Z,99.90
2018-04-24T00:04:53.405Z,99.90
2018-04-24T00:07:20.954Z,99.90
2018-04-24T00:09:49.154Z,99.90
2018-04-24T00:12:16.678Z,99.90
2018-04-24T00:14:44.506Z,99.90
2018-04-24T00:17:12.091Z,99.90
2018-04-24T00:19:39.624Z,99.90
2018-04-24T00:22:07.142Z,99.90
2018-04-24T00:24:35.491Z,99.90
2018-04-24T00:27:03.021Z,99.90
2018-04-24T00:29:30.616Z,99.90
2018-04-24T00:31:59.484Z,99.90
2018-04-24T00:34:27.079Z,99.90
2018-04-24T00:36:54.539Z,99.90
2018-04-24T00:39:22.851Z,99.90
2018-04-24T00:41:51.191Z,99.90
2018-04-24T00:44:19.475Z,99.90
2018-04-24T00:46:47.013Z,99.90
2018-04-24T00:49:26.514Z,99.90
2018-04-24T00:56:10.247Z,99.90
2018-04-24T00:58:37.807Z,99.90
2018-04-24T01:01:05.365Z,99.90
2018-04-24T01:03:32.947Z,99.90
2018-04-24T01:06:00.478Z,99.90
2018-04-24T01:08:29.000Z,99.90
2018-04-24T01:10:56.558Z,99.90
2018-04-24T01:13:24.146Z,99.90
2018-04-24T01:15:51.658Z,99.90
2018-04-24T01:18:19.754Z,99.90
2018-04-24T01:20:47.265Z,99.90
2018-04-24T01:23:16.445Z,99.90
2018-04-24T01:25:44.018Z,99.90
2018-04-24T01:28:12.927Z,99.90
2018-04-24T01:30:40.470Z,99.90
2018-04-24T01:33:08.010Z,99.90
2018-04-24T01:35:35.527Z,99.90
2018-04-24T01:38:03.161Z,99.90
2018-04-24T01:40:31.178Z,99.90
2018-04-24T01:42:58.726Z,99.90
2018-04-24T01:45:26.241Z,99.90
2018-04-24T01:47:54.559Z,99.90
2018-04-24T01:50:22.079Z,99.90
2018-04-24T01:52:50.371Z,99.90
2018-04-24T01:55:18.723Z,99.90
2018-04-24T01:57:46.230Z,99.90
2018-04-24T02:00:15.491Z,99.90
2018-04-24T02:02:43.636Z,99.90
2018-04-24T02:05:11.171Z,99.90
2018-04-24T02:07:38.678Z,99.90
2018-04-24T02:10:06.243Z,99.90
2018-04-24T02:12:33.766Z,99.90
2018-04-24T02:15:01.276Z,99.90
2018-04-24T02:17:28.823Z,99.90
2018-04-24T02:19:56.336Z,99.90
2018-04-24T02:22:23.862Z,99.90
2018-04-24T02:24:51.620Z,99.90
2018-04-24T02:27:19.134Z,99.90
2018-04-24T02:29:47.915Z,99.90
2018-04-24T02:32:17.252Z,99.90
2018-04-24T02:34:44.763Z,99.90
2018-04-24T02:37:12.290Z,99.90
2018-04-24T02:39:39.834Z,99.90
2018-04-24T02:42:07.396Z,99.90
2018-04-24T02:44:34.948Z,99.90
2018-04-24T02:47:03.230Z,99.90
2018-04-24T02:49:30.742Z,99.90
2018-04-24T02:51:59.040Z,99.90
2018-04-24T02:54:26.615Z,99.90
2018-04-24T02:56:54.144Z,99.90
2018-04-24T02:59:22.834Z,99.90
2018-04-24T03:01:51.229Z,99.90
2018-04-24T03:04:18.770Z,99.90
2018-04-24T03:06:46.326Z,99.90
2018-04-24T03:09:27.258Z,99.90
2018-04-24T03:14:54.221Z,99.90
2018-04-24T03:17:22.440Z,99.90
2018-04-24T03:19:49.968Z,99.90
2018-04-24T03:22:17.507Z,99.90
2018-04-24T03:24:45.019Z,99.90
2018-04-24T03:27:12.532Z,99.90
2018-04-24T03:29:40.118Z,99.90
2018-04-24T03:32:07.918Z,99.90
2018-04-24T03:34:35.451Z,99.90
2018-04-24T03:37:03.023Z,99.90
2018-04-24T03:39:30.598Z,99.90
2018-04-24T03:41:58.135Z,99.90
2018-04-24T03:44:26.458Z,99.90
2018-04-24T03:46:53.997Z,99.90
2018-04-24T03:49:21.517Z,99.90
2018-04-24T03:51:50.148Z,99.90
2018-04-24T03:54:17.694Z,99.90
2018-04-24T03:56:45.231Z,99.90
2018-04-24T03:59:14.486Z,99.90
2018-04-24T04:01:42.038Z,99.90
2018-04-24T04:04:09.566Z,99.90
2018-04-24T04:06:37.148Z,99.90
2018-04-24T04:09:04.670Z,99.90
2018-04-24T04:11:33.028Z,99.90
2018-04-24T04:14:00.893Z,99.90
2018-04-24T04:16:28.410Z,99.90
2018-04-24T04:19:07.762Z,99.90
2018-04-24T04:21:47.284Z,99.90
2018-04-24T04:27:18.866Z,99.90
2018-04-24T04:29:47.145Z,99.90
2018-04-24T04:32:17.374Z,99.90
2018-04-24T04:34:44.945Z,99.90
2018-04-24T04:37:12.555Z,99.90
2018-04-24T04:39:40.171Z,99.90
2018-04-24T04:42:07.697Z,99.90
2018-04-24T04:44:35.256Z,99.90
2018-04-24T04:47:02.984Z,99.90
2018-04-24T04:49:30.519Z,99.90
2018-04-24T04:51:58.850Z,99.90
2018-04-24T04:54:26.386Z,99.90
2018-04-24T04:56:53.919Z,99.90
2018-04-24T04:59:22.243Z,99.90
2018-04-24T05:01:49.764Z,99.90
2018-04-24T05:04:17.336Z,99.90
2018-04-24T05:06:44.878Z,99.90
2018-04-24T05:09:14.083Z,99.90
2018-04-24T05:11:41.598Z,99.90
2018-04-24T05:14:09.342Z,99.90
2018-04-24T05:16:36.862Z,99.90
2018-04-24T05:19:05.024Z,99.90
2018-04-24T05:21:33.392Z,99.90
2018-04-24T05:24:00.975Z,99.90
2018-04-24T05:26:28.593Z,99.90
2018-04-24T05:28:56.103Z,99.90
2018-04-24T05:31:23.646Z,99.90
2018-04-24T05:33:51.498Z,99.90
2018-04-24T05:36:19.403Z,99.90
2018-04-24T05:38:46.935Z,99.90
2018-04-24T05:41:26.743Z,99.90
2018-04-24T05:47:57.242Z,99.90
2018-04-24T05:50:24.776Z,99.90
2018-04-24T05:52:52.306Z,99.60
2018-04-24T05:55:20.413Z,98.60
2018-04-24T05:57:48.717Z,99.30
2018-04-24T06:00:16.547Z,99.20
2018-04-24T06:02:44.882Z,98.20
2018-04-24T06:05:12.410Z,98.20
2018-04-24T06:07:39.930Z,98.50
2018-04-24T06:10:07.599Z,98.10
2018-04-24T06:12:35.112Z,98.30
2018-04-24T06:15:02.674Z,98.30
2018-04-24T06:17:30.673Z,97.90
2018-04-24T06:19:58.195Z,96.90
2018-04-24T06:22:25.717Z,96.50
2018-04-24T06:24:53.386Z,95.50
2018-04-24T06:27:21.747Z,94.70
2018-04-24T06:29:49.268Z,94.70
2018-04-24T06:32:16.819Z,94.10
2018-04-24T06:34:44.682Z,94.80
2018-04-24T06:37:12.203Z,93.00
2018-04-24T06:39:40.823Z,88.10
2018-04-24T06:42:09.291Z,88.00
2018-04-24T06:44:36.823Z,83.10
2018-04-24T06:47:05.127Z,75.00
2018-04-24T06:49:32.684Z,74.90
2018-04-24T06:52:00.194Z,74.00
2018-04-24T06:54:27.735Z,70.70
2018-04-24T06:56:55.263Z,70.20
2018-04-24T06:59:22.780Z,68.50
2018-04-24T07:01:51.507Z,66.50
2018-04-24T07:04:19.034Z,66.40
2018-04-24T07:06:47.311Z,63.50
2018-04-24T07:09:16.434Z,63.40
2018-04-24T07:11:43.960Z,65.70
2018-04-24T07:14:12.260Z,65.80
2018-04-24T07:16:39.803Z,65.80
2018-04-24T07:19:08.103Z,60.80
2018-04-24T07:21:35.628Z,60.70
2018-04-24T07:24:04.250Z,58.50
2018-04-24T07:26:32.534Z,56.40
2018-04-24T07:29:00.056Z,55.50
2018-04-24T07:31:27.727Z,56.90
2018-04-24T07:33:55.238Z,58.10
2018-04-24T07:36:23.019Z,61.20
2018-04-24T07:38:50.587Z,64.00
2018-04-24T07:41:18.896Z,65.90
2018-04-24T07:43:46.414Z,65.90
2018-04-24T07:46:27.244Z,66.50
2018-04-24T07:51:30.214Z,67.40
2018-04-24T07:53:58.582Z,70.90
2018-04-24T07:56:26.104Z,72.20
2018-04-24T07:58:53.852Z,69.10
2018-04-24T08:01:21.375Z,62.40
2018-04-24T08:03:48.894Z,56.60
2018-04-24T08:06:17.623Z,51.40
2018-04-24T08:08:45.132Z,51.20
2018-04-24T08:11:15.074Z,48.50
2018-04-24T08:13:42.607Z,48.50
2018-04-24T08:16:10.136Z,47.70
2018-04-24T08:18:37.658Z,47.30
2018-04-24T08:21:05.218Z,51.30
2018-04-24T08:23:32.729Z,48.40
2018-04-24T08:26:00.249Z,46.90
2018-04-24T08:28:28.013Z,44.30
2018-04-24T08:30:55.525Z,41.80
2018-04-24T08:33:23.047Z,40.60
2018-04-24T08:35:51.104Z,39.30
2018-04-24T08:38:18.847Z,37.50
2018-04-24T08:40:46.354Z,40.00
2018-04-24T08:43:16.358Z,45.60
2018-04-24T08:45:43.914Z,45.50
2018-04-24T08:48:11.454Z,46.40
2018-04-24T08:50:39.755Z,45.80
2018-04-24T08:53:07.370Z,43.30
2018-04-24T08:55:34.838Z,41.60
2018-04-24T08:58:02.403Z,42.80
2018-04-24T09:00:30.011Z,44.20
2018-04-24T09:02:57.547Z,45.20
2018-04-24T09:05:25.098Z,45.30
2018-04-24T09:07:52.612Z,40.80
2018-04-24T09:10:21.235Z,38.80
2018-04-24T09:12:49.358Z,38.70
2018-04-24T09:15:17.738Z,41.20
2018-04-24T09:17:45.260Z,40.50
2018-04-24T09:20:13.754Z,41.00
2018-04-24T09:22:42.065Z,38.20
2018-04-24T09:25:10.347Z,37.60
2018-04-24T09:27:38.678Z,39.60
2018-04-24T09:30:06.194Z,39.60
2018-04-24T09:32:33.827Z,40.30
2018-04-24T09:37:43.850Z,37.00
2018-04-24T09:40:11.957Z,39.10
2018-04-24T09:42:39.527Z,41.10
2018-04-24T09:45:07.856Z,39.10
2018-04-24T09:47:35.406Z,39.10
2018-04-24T09:50:02.950Z,37.50
2018-04-24T09:52:30.488Z,35.40
2018-04-24T09:54:59.019Z,37.60
2018-04-24T09:57:26.565Z,37.50
2018-04-24T09:59:54.080Z,39.80
2018-04-24T10:02:22.407Z,42.00
2018-04-24T10:04:49.928Z,42.00
2018-04-24T10:07:17.455Z,40.80
2018-04-24T10:09:45.019Z,41.60
2018-04-24T10:12:12.543Z,42.10
2018-04-24T10:14:40.067Z,42.20
2018-04-24T10:17:08.290Z,42.40
2018-04-24T10:19:36.176Z,43.90
2018-04-24T10:22:03.711Z,46.40
2018-04-24T10:24:31.382Z,47.00
2018-04-24T10:26:58.916Z,46.00
2018-04-24T10:29:26.455Z,46.70
2018-04-24T10:31:54.043Z,46.10
2018-04-24T10:34:21.568Z,45.90
2018-04-24T10:36:49.962Z,44.10
2018-04-24T10:39:18.114Z,45.90
2018-04-24T10:41:46.152Z,43.50
2018-04-24T10:44:26.827Z,42.10
2018-04-24T10:49:28.026Z,46.40
2018-04-24T10:51:55.566Z,46.30
2018-04-24T10:54:23.099Z,47.40
2018-04-24T10:56:52.315Z,47.80
2018-04-24T10:59:19.885Z,46.60
2018-04-24T11:01:47.389Z,46.70
2018-04-24T11:04:16.302Z,46.50
2018-04-24T11:06:43.870Z,46.50
2018-04-24T11:09:11.383Z,45.70
2018-04-24T11:11:38.989Z,47.00
2018-04-24T11:14:07.283Z,49.30
2018-04-24T11:16:35.571Z,49.00
2018-04-24T11:19:03.778Z,48.90
2018-04-24T11:21:31.317Z,48.90
2018-04-24T11:23:58.852Z,48.50
2018-04-24T11:26:27.178Z,45.40
2018-04-24T11:28:54.768Z,45.30
2018-04-24T11:31:22.318Z,45.70
2018-04-24T11:33:50.679Z,45.40
2018-04-24T11:36:18.702Z,45.30
2018-04-24T11:38:46.522Z,43.90
2018-04-24T11:41:16.553Z,45.30
2018-04-24T11:43:44.676Z,45.20
2018-04-24T11:46:12.215Z,43.90
2018-04-24T11:48:39.903Z,42.10
2018-04-24T11:51:08.132Z,41.10
2018-04-24T11:53:36.484Z,41.30
2018-04-24T11:56:04.097Z,41.30
2018-04-24T11:58:31.656Z,40.60
2018-04-24T12:00:59.188Z,42.40
2018-04-24T12:03:28.047Z,41.30
2018-04-24T12:05:56.385Z,41.10
2018-04-24T12:08:23.894Z,42.80
2018-04-24T12:10:51.451Z,41.20
2018-04-24T12:13:18.978Z,41.70
2018-04-24T12:15:46.632Z,43.70
2018-04-24T12:18:24.636Z,43.40
2018-04-24T12:25:10.364Z,40.90
2018-04-24T12:27:37.913Z,41.60
2018-04-24T12:30:05.453Z,41.00
2018-04-24T12:32:33.008Z,42.10
2018-04-24T12:35:00.567Z,42.80
2018-04-24T12:37:28.107Z,41.90
2018-04-24T12:39:55.810Z,42.00
2018-04-24T12:42:23.372Z,41.30
2018-04-24T12:44:53.374Z,41.90
2018-04-24T12:47:21.226Z,41.40
2018-04-24T12:49:48.795Z,41.10
2018-04-24T12:52:16.499Z,40.10
2018-04-24T12:54:44.656Z,40.60
2018-04-24T12:57:12.179Z,41.70
2018-04-24T12:59:39.830Z,41.00
2018-04-24T13:02:07.483Z,42.70
2018-04-24T13:04:35.166Z,41.90
2018-04-24T13:07:02.658Z,41.40
2018-04-24T13:09:30.925Z,40.60
2018-04-24T13:11:58.524Z,41.20
2018-04-24T13:14:26.906Z,40.80
2018-04-24T13:16:55.231Z,42.20
2018-04-24T13:19:22.763Z,42.20
2018-04-24T13:21:51.148Z,42.40
2018-04-24T13:24:19.193Z,42.40
2018-04-24T13:26:47.532Z,40.90
2018-04-24T13:29:17.250Z,40.90
2018-04-24T13:31:45.421Z,39.90
2018-04-24T13:34:15.515Z,39.30
2018-04-24T13:36:43.037Z,39.40
2018-04-24T13:39:11.375Z,40.90
2018-04-24T13:41:40.715Z,40.80
2018-04-24T13:44:08.315Z,38.80
2018-04-24T13:46:36.192Z,39.50
2018-04-24T13:49:03.734Z,40.00
2018-04-24T13:51:31.251Z,39.30
2018-04-24T13:53:59.619Z,40.00
2018-04-24T13:56:27.140Z,40.10
2018-04-24T13:58:54.655Z,41.10
2018-04-24T14:01:23.167Z,39.50
2018-04-24T14:03:50.674Z,39.40
2018-04-24T14:06:18.265Z,39.90
2018-04-24T14:08:45.763Z,39.30
2018-04-24T14:11:15.434Z,39.30
2018-04-24T14:13:42.964Z,39.00
2018-04-24T14:16:10.883Z,38.30
2018-04-24T14:18:38.446Z,39.10
2018-04-24T14:21:06.728Z,37.60
2018-04-24T14:23:34.269Z,37.60
2018-04-24T14:26:01.786Z,39.10
2018-04-24T14:28:29.319Z,40.20
2018-04-24T14:30:56.869Z,39.60
2018-04-24T14:33:24.396Z,41.10
2018-04-24T14:35:51.927Z,40.50
2018-04-24T14:38:19.848Z,40.80
2018-04-24T14:40:47.739Z,40.20
2018-04-24T14:43:15.475Z,41.40
2018-04-24T14:45:43.020Z,40.80
2018-04-24T14:48:11.030Z,40.50
2018-04-24T14:50:38.571Z,40.90
2018-04-24T14:53:06.145Z,40.60
2018-04-24T14:55:33.675Z,39.50
2018-04-24T14:58:01.230Z,38.90
2018-04-24T15:00:29.398Z,38.80
2018-04-24T15:02:56.973Z,38.20
2018-04-24T15:05:24.516Z,38.60
2018-04-24T15:07:52.273Z,37.90
2018-04-24T15:10:19.807Z,39.10
2018-04-24T15:12:47.336Z,39.00
2018-04-24T15:15:17.901Z,39.00
2018-04-24T15:17:45.432Z,37.40
2018-04-24T15:20:25.021Z,38.80
2018-04-24T15:22:52.500Z,38.80
2018-04-24T15:25:20.015Z,39.50
2018-04-24T15:27:47.582Z,39.60
2018-04-24T15:30:15.535Z,39.30
2018-04-24T15:32:43.103Z,38.30
2018-04-24T15:35:10.667Z,39.10
2018-04-24T15:37:38.202Z,39.30
2018-04-24T15:40:06.507Z,39.40
2018-04-24T15:42:34.368Z,39.40
2018-04-24T15:45:01.891Z,39.40
2018-04-24T15:47:29.942Z,38.60
2018-04-24T15:49:58.287Z,39.10
2018-04-24T15:52:25.814Z,39.70
2018-04-24T15:54:54.178Z,39.60
2018-04-24T15:57:21.720Z,39.50
2018-04-24T15:59:49.527Z,38.60
2018-04-24T16:02:17.055Z,38.30
2018-04-24T16:04:45.728Z,39.10
2018-04-24T16:07:25.129Z,39.10
2018-04-24T16:12:26.321Z,38.90
2018-04-24T16:14:53.913Z,39.50
2018-04-24T16:17:21.451Z,40.40
2018-04-24T16:19:49.661Z,39.90
2018-04-24T16:22:17.234Z,40.90
2018-04-24T16:24:44.754Z,40.40
2018-04-24T16:27:12.408Z,38.80
2018-04-24T16:29:40.059Z,39.00
2018-04-24T16:32:07.546Z,38.80
2018-04-24T16:34:35.213Z,39.70
2018-04-24T16:37:02.764Z,39.80
2018-04-24T16:39:31.006Z,39.50
2018-04-24T16:41:59.201Z,39.40
2018-04-24T16:44:26.798Z,40.30
2018-04-24T16:46:54.338Z,40.20
2018-04-24T16:49:22.667Z,41.00
2018-04-24T16:51:51.239Z,41.00
2018-04-24T16:54:18.827Z,40.30
2018-04-24T16:56:46.366Z,41.60
2018-04-24T16:59:26.043Z,41.10
2018-04-24T17:04:41.106Z,40.10
2018-04-24T17:07:08.654Z,40.40
2018-04-24T17:09:36.169Z,41.00
2018-04-24T17:12:04.158Z,40.40
2018-04-24T17:14:31.681Z,41.30
2018-04-24T17:16:59.968Z,40.80
2018-04-24T17:19:27.678Z,40.70
2018-04-24T17:21:55.195Z,41.20
2018-04-24T17:24:22.742Z,41.40
2018-04-24T17:26:50.932Z,41.80
2018-04-24T17:29:18.491Z,42.00
2018-04-24T17:31:46.011Z,42.40
2018-04-24T17:34:15.499Z,43.60
2018-04-24T17:36:43.026Z,43.60
2018-04-24T17:39:10.548Z,43.90
2018-04-24T17:41:38.115Z,44.30
2018-04-24T17:44:05.644Z,43.80
2018-04-24T17:46:33.158Z,44.10
2018-04-24T17:49:00.725Z,44.20
2018-04-24T17:51:28.244Z,44.50
2018-04-24T17:53:56.989Z,45.40
2018-04-24T17:56:24.575Z,45.40
2018-04-24T17:58:52.145Z,46.00
2018-04-24T18:01:20.495Z,47.90
2018-04-24T18:03:48.047Z,47.90
2018-04-24T18:06:17.213Z,47.50
2018-04-24T18:08:44.755Z,47.50
2018-04-24T18:11:12.408Z,47.90
2018-04-24T18:13:40.001Z,49.00
2018-04-24T18:16:07.525Z,48.20
2018-04-24T18:18:35.071Z,49.50
2018-04-24T18:21:02.614Z,49.30
2018-04-24T18:23:30.206Z,50.20
2018-04-24T18:25:58.634Z,51.20
2018-04-24T18:28:26.356Z,51.20
2018-04-24T18:30:53.881Z,51.00
2018-04-24T18:33:21.470Z,50.90
2018-04-24T18:35:49.000Z,51.50
2018-04-24T18:38:16.537Z,52.20
2018-04-24T18:40:44.088Z,52.20
2018-04-24T18:43:11.626Z,52.30
2018-04-24T18:45:39.131Z,52.10
2018-04-24T18:48:06.700Z,51.70
2018-04-24T18:50:35.070Z,53.60
2018-04-24T18:53:02.621Z,52.90
2018-04-24T18:55:30.833Z,52.80
2018-04-24T18:57:58.363Z,53.50
2018-04-24T19:00:26.719Z,53.20
2018-04-24T19:02:54.322Z,53.10
2018-04-24T19:05:21.870Z,53.30
2018-04-24T19:07:49.528Z,52.90
2018-04-24T19:10:17.097Z,53.40
2018-04-24T19:12:44.638Z,53.40
2018-04-24T19:15:12.182Z,53.90
2018-04-24T19:17:41.250Z,54.20
2018-04-24T19:20:08.886Z,54.30
2018-04-24T19:22:37.166Z,53.40
2018-04-24T19:25:10.499Z,53.00
2018-04-24T19:27:38.744Z,53.10
2018-04-24T19:30:07.041Z,53.60
2018-04-24T19:32:34.990Z,53.60
2018-04-24T19:35:02.566Z,54.10
2018-04-24T19:37:30.230Z,55.00
2018-04-24T19:40:03.685Z,55.40
2018-04-24T19:42:31.320Z,56.00
2018-04-24T19:44:58.867Z,56.20
2018-04-24T19:47:26.430Z,56.30
2018-04-24T19:49:59.521Z,56.40
2018-04-24T19:52:27.857Z,56.90
2018-04-24T19:55:00.967Z,56.90
2018-04-24T19:57:29.268Z,56.60
2018-04-24T19:59:56.775Z,57.00
2018-04-24T20:02:24.333Z,57.50
2018-04-24T20:04:51.902Z,57.60
2018-04-24T20:07:19.424Z,57.60
2018-04-24T20:09:46.963Z,57.80
2018-04-24T20:12:26.262Z,58.30
2018-04-24T20:17:28.615Z,58.70
2018-04-24T20:19:56.313Z,59.00
2018-04-24T20:22:23.838Z,59.30
2018-04-24T20:24:51.390Z,59.70
2018-04-24T20:27:18.914Z,60.20
2018-04-24T20:29:46.539Z,59.90
2018-04-24T20:32:26.792Z,60.70
2018-04-24T20:37:39.538Z,61.10
2018-04-24T20:40:07.097Z,61.60
2018-04-24T20:42:34.639Z,62.10
2018-04-24T20:45:02.203Z,62.40
2018-04-24T20:47:29.752Z,62.70
2018-04-24T20:49:57.330Z,63.00
2018-04-24T20:52:24.892Z,63.50
2018-04-24T20:54:52.422Z,63.50
2018-04-24T20:57:19.966Z,64.20
2018-04-24T20:59:48.079Z,64.40
2018-04-24T21:02:16.414Z,64.80
2018-04-24T21:04:43.953Z,65.50
2018-04-24T21:07:11.499Z,65.60
2018-04-24T21:09:39.086Z,66.00
2018-04-24T21:12:07.249Z,66.40
2018-04-24T21:14:35.572Z,67.40
2018-04-24T21:17:03.096Z,67.30
2018-04-24T21:19:30.706Z,67.50
2018-04-24T21:21:58.244Z,67.80
2018-04-24T21:24:25.853Z,68.10
2018-04-24T21:26:53.346Z,68.60
2018-04-24T21:29:20.923Z,68.80
2018-04-24T21:31:48.452Z,69.00
2018-04-24T21:34:16.486Z,68.80
2018-04-24T21:36:44.046Z,69.20
2018-04-24T21:39:13.996Z,69.70
2018-04-24T21:41:41.528Z,69.70
2018-04-24T21:44:09.891Z,70.50
2018-04-24T21:46:37.449Z,70.40
2018-04-24T21:49:05.005Z,70.40
2018-04-24T21:51:32.557Z,70.20
2018-04-24T21:54:00.079Z,70.20
2018-04-24T21:56:27.602Z,70.30
2018-04-24T21:58:55.184Z,70.40
2018-04-24T22:01:23.199Z,70.70
2018-04-24T22:03:50.722Z,70.80
2018-04-24T22:06:18.505Z,70.90
2018-04-24T22:08:46.022Z,71.00
2018-04-24T22:11:24.503Z,71.40
2018-04-24T22:13:52.035Z,71.50
2018-04-24T22:16:20.334Z,72.10
2018-04-24T22:18:47.867Z,71.90
2018-04-24T22:21:16.412Z,72.10
2018-04-24T22:23:44.698Z,72.80
2018-04-24T22:26:12.920Z,72.80
2018-04-24T22:28:40.442Z,73.00
2018-04-24T22:31:07.970Z,73.30
2018-04-24T22:33:35.528Z,73.50
2018-04-24T22:36:03.834Z,73.80
2018-04-24T22:38:31.355Z,73.70
2018-04-24T22:40:58.947Z,73.90
2018-04-24T22:43:26.474Z,74.50
2018-04-24T22:45:54.010Z,75.00
2018-04-24T22:48:21.614Z,75.00
2018-04-24T22:50:49.148Z,75.10
2018-04-24T22:53:16.671Z,75.20
2018-04-24T22:55:44.218Z,75.30
2018-04-24T22:58:11.751Z,75.40
2018-04-24T23:00:39.285Z,75.50
2018-04-24T23:03:07.634Z,75.70
2018-04-24T23:05:35.160Z,76.00
2018-04-24T23:08:02.689Z,76.20
2018-04-24T23:10:42.649Z,76.70
2018-04-24T23:13:21.891Z,76.70
2018-04-24T23:16:01.326Z,76.70
2018-04-24T23:18:40.665Z,76.90
2018-04-24T23:21:07.758Z,77.20
2018-04-24T23:23:35.296Z,77.70
2018-04-24T23:26:02.888Z,78.00
2018-04-24T23:28:30.954Z,78.00
2018-04-24T23:30:58.491Z,78.20
2018-04-24T23:33:26.809Z,78.90
2018-04-24T23:35:54.366Z,78.80
2018-04-24T23:38:21.880Z,79.40
2018-04-24T23:40:49.439Z,79.80
2018-04-24T23:43:16.997Z,80.30
2018-04-24T23:45:44.511Z,80.30
2018-04-24T23:48:12.068Z,80.30
2018-04-24T23:50:40.911Z,80.70
2018-04-24T23:53:08.429Z,80.60
2018-04-24T23:55:36.710Z,80.70
2018-04-24T23:58:05.016Z,80.70
